FMNM

Details ICAO FMNM (MJN)
Name PHILIBERT TSIRANANA
Region Comoros, Mayotte, Réunion and Madagascar
Timezone Indian/Antananarivo (UTC+3.0)
Plans Departing 16
Arriving 23
Stats Elevation 87 ft / 27 m (AMSL)
Location -15.667144° 46.351829°
Runways 1
Magnetic Variation 11.235° W
Sunrise 2017-12-14 02:19:11 UTC / 2017-12-14 05:19:11 Local
Sunset 2017-12-14 15:22:03 UTC / 2017-12-14 18:22:03 Local
Advertisement - Login to hide

Runways

ID Width Length Bearing (true) Bearing (mag) Surface Threshold Offset Overrun Length
14 148 ft / 45 m 7,235 ft / 2,205 m 132.37° 143.60° Asphalt 0 ft / 0 m 98 ft / 30 m
32 148 ft / 45 m 7,235 ft / 2,205 m 312.37° 323.60° Asphalt 0 ft / 0 m 98 ft / 30 m

Map

Weather


0- 5 10 15 20 25 30 35+ Temperature / ° C

Clouds and Precipitation
Forecast for 2017-12-14 00:00 UTC. Updated 2 hours ago

Ground ~20,000 ft ~40,000 ft Winds

METAR

FMNM 140100Z 12004KT 9999 FEW020CB SCT040 24/22 Q1011

TAF

TAF FMNM 132300Z 1400/1424 16005KT 9999 FEW007 SCT020CB BKN040 PROB40 TEMPO 1400/1408 4500 TSRA BECMG 1405/1408 30010KT

Frequencies

Tower 119.10 MHz MAHAJANGA TWR
Warning: Do not use this data for real-world aviation or navigation. No guarantee of current accuracy is given.